Time;durP1;ratioP1;P1;durP2;ratioP2;P2;SDS_P1;SDS_P2;PMS_P1;PMS_P2;Temp;Humidity;BMP_temperature;BMP_pressure;BME280_temperature;BME280_humidity;BME280_pressure;Samples;Min_cycle;Max_cycle;Signal;HPM_P1;HPM_P2
2021/07/05 00:01:28;;;;;;;7.55;3.28;;;20.40;89.50;;;;;;5021365;28;20033;-77
2021/07/05 00:03:54;;;;;;;5.45;3.83;;;20.40;89.50;;;;;;5036457;28;20032;-77
2021/07/05 00:06:19;;;;;;;9.05;3.58;;;20.40;89.60;;;;;;5027713;28;20031;-77
2021/07/05 00:08:45;;;;;;;3.53;3.22;;;20.40;90.00;;;;;;5039164;28;20029;-77
2021/07/05 00:11:10;;;;;;;7.35;3.47;;;20.30;89.80;;;;;;5042245;28;20104;-77
2021/07/05 00:13:36;;;;;;;5.15;3.70;;;20.30;89.70;;;;;;5024282;28;20120;-77
2021/07/05 00:16:02;;;;;;;4.38;3.63;;;20.30;89.80;;;;;;5041461;28;20115;-77
2021/07/05 00:18:28;;;;;;;3.95;3.13;;;20.40;89.80;;;;;;5040774;28;20033;-77
2021/07/05 00:20:54;;;;;;;4.47;3.72;;;20.30;89.50;;;;;;5044278;28;20108;-77
2021/07/05 00:23:20;;;;;;;7.70;3.88;;;20.30;89.80;;;;;;5041123;28;20029;-77
2021/07/05 00:25:46;;;;;;;7.47;3.72;;;20.30;89.70;;;;;;5023448;28;20385;-77
2021/07/05 00:28:12;;;;;;;5.05;4.00;;;20.40;89.50;;;;;;5040771;28;20025;-78
2021/07/05 00:30:38;;;;;;;4.75;3.10;;;20.30;89.60;;;;;;5043512;28;20031;-77
2021/07/05 00:33:04;;;;;;;4.35;3.47;;;20.30;89.80;;;;;;5024542;28;20396;-77
2021/07/05 00:35:31;;;;;;;7.13;3.58;;;20.30;89.80;;;;;;5032113;23;20060;-73
2021/07/05 00:37:57;;;;;;;4.15;3.45;;;20.30;89.60;;;;;;5019055;28;20025;-73
2021/07/05 00:40:24;;;;;;;5.57;3.35;;;20.30;90.00;;;;;;5021852;28;20033;-73
2021/07/05 00:42:50;;;;;;;7.63;3.72;;;20.30;89.60;;;;;;5020943;28;20121;-73
2021/07/05 00:45:18;;;;;;;5.25;3.95;;;20.20;89.60;;;;;;5020134;28;20067;-73
2021/07/05 00:47:44;;;;;;;6.32;3.10;;;20.20;89.40;;;;;;5019602;28;20412;-73
2021/07/05 00:50:12;;;;;;;3.90;3.60;;;20.20;89.60;;;;;;5017402;28;20025;-73
2021/07/05 00:52:40;;;;;;;7.30;2.90;;;20.30;89.60;;;;;;5019964;28;20160;-73
2021/07/05 00:55:07;;;;;;;3.22;2.75;;;20.30;89.50;;;;;;5018746;28;20025;-73
2021/07/05 00:57:33;;;;;;;5.57;3.65;;;20.30;89.10;;;;;;4995159;28;20028;-73
2021/07/05 00:59:58;;;;;;;3.78;2.85;;;20.30;88.80;;;;;;5019903;28;20044;-73
2021/07/05 01:02:26;;;;;;;6.30;3.30;;;20.30;89.00;;;;;;5021143;28;20543;-73
2021/07/05 01:04:52;;;;;;;7.15;3.63;;;20.30;88.70;;;;;;5016059;28;20037;-73
2021/07/05 01:07:18;;;;;;;3.67;2.67;;;20.20;88.60;;;;;;5000481;28;20025;-73
2021/07/05 01:09:44;;;;;;;3.63;3.03;;;20.10;88.80;;;;;;4999409;28;20057;-73
2021/07/05 01:12:10;;;;;;;6.93;3.72;;;20.10;88.90;;;;;;5020113;28;20087;-73
2021/07/05 01:14:37;;;;;;;3.75;2.85;;;20.00;89.20;;;;;;5018823;28;20125;-74
2021/07/05 01:17:04;;;;;;;4.63;2.85;;;20.00;89.70;;;;;;5019796;28;20037;-73
2021/07/05 01:19:30;;;;;;;7.18;3.35;;;19.90;89.50;;;;;;5019666;28;20570;-73
2021/07/05 01:21:56;;;;;;;5.60;3.45;;;19.90;89.60;;;;;;5019093;28;20057;-73
2021/07/05 01:24:22;;;;;;;4.25;3.85;;;19.90;89.60;;;;;;5018867;28;20065;-73
2021/07/05 01:26:48;;;;;;;5.80;3.30;;;19.90;90.10;;;;;;5020056;28;20481;-73
2021/07/05 01:29:14;;;;;;;6.50;2.97;;;19.90;90.00;;;;;;5018342;28;20384;-73
2021/07/05 01:31:40;;;;;;;9.35;3.45;;;19.80;90.00;;;;;;5001724;28;20444;-73
2021/07/05 01:34:05;;;;;;;4.40;3.35;;;19.90;90.20;;;;;;5019393;28;20307;-73
2021/07/05 01:36:31;;;;;;;8.40;3.30;;;19.80;90.10;;;;;;5002671;28;20034;-73
2021/07/05 01:38:57;;;;;;;5.82;3.63;;;19.80;90.20;;;;;;5016075;28;20061;-73
2021/07/05 01:41:23;;;;;;;6.80;3.33;;;19.80;89.90;;;;;;5002450;28;20484;-73
2021/07/05 01:43:49;;;;;;;4.07;2.95;;;19.90;90.20;;;;;;5017392;28;20037;-73
2021/07/05 01:46:16;;;;;;;4.60;3.72;;;19.80;90.20;;;;;;5019206;28;20034;-73
2021/07/05 01:48:42;;;;;;;6.22;3.67;;;19.80;90.00;;;;;;5015329;28;20040;-73
2021/07/05 01:51:08;;;;;;;5.47;3.03;;;19.90;90.10;;;;;;5008483;28;20026;-73
2021/07/05 01:53:33;;;;;;;4.60;2.83;;;19.90;90.00;;;;;;5000886;28;20112;-73
2021/07/05 01:55:59;;;;;;;4.50;3.35;;;19.90;90.10;;;;;;5001378;28;20071;-73
2021/07/05 01:58:24;;;;;;;4.07;2.97;;;19.80;90.10;;;;;;5017813;28;20034;-73
2021/07/05 02:00:51;;;;;;;4.15;2.72;;;19.80;90.10;;;;;;5018641;28;20400;-73
2021/07/05 02:03:18;;;;;;;8.40;3.60;;;19.80;90.10;;;;;;5018378;28;20025;-73
2021/07/05 02:05:45;;;;;;;6.03;3.67;;;19.80;90.20;;;;;;5018727;28;20080;-73
2021/07/05 02:08:12;;;;;;;6.97;3.08;;;19.70;90.50;;;;;;5016708;28;20022;-73
2021/07/05 02:10:39;;;;;;;5.05;3.10;;;19.70;90.20;;;;;;5002244;28;20032;-73
2021/07/05 02:13:14;;;;;;;6.90;3.45;;;19.70;90.30;;;;;;5018177;28;20111;-73
2021/07/05 02:15:41;;;;;;;4.85;2.53;;;19.60;90.40;;;;;;5019736;28;20021;-73
2021/07/05 02:18:07;;;;;;;7.72;3.20;;;19.60;90.40;;;;;;5016725;28;20037;-73
2021/07/05 02:20:32;;;;;;;3.30;3.00;;;19.60;90.10;;;;;;5018034;28;20404;-73
2021/07/05 02:23:00;;;;;;;3.20;2.80;;;19.70;90.10;;;;;;5013875;28;20038;-73
2021/07/05 02:25:27;;;;;;;8.75;3.03;;;19.70;90.10;;;;;;5001039;28;20025;-73
2021/07/05 02:28:00;;;;;;;3.83;2.88;;;19.70;90.40;;;;;;5017627;28;20100;-73
2021/07/05 02:30:29;;;;;;;7.90;3.97;;;19.60;90.20;;;;;;5019578;28;20061;-73
2021/07/05 02:32:56;;;;;;;6.90;2.88;;;19.60;90.20;;;;;;5018857;28;20029;-73
2021/07/05 02:35:24;;;;;;;7.18;3.40;;;19.60;90.40;;;;;;5018762;28;20049;-73
2021/07/05 02:37:50;;;;;;;7.47;3.20;;;19.60;90.20;;;;;;4991123;28;20412;-73
2021/07/05 02:40:21;;;;;;;4.45;2.35;;;19.60;90.50;;;;;;5017386;28;20524;-73
2021/07/05 02:42:47;;;;;;;5.80;3.08;;;19.60;90.20;;;;;;5016961;28;20045;-73
2021/07/05 02:45:22;;;;;;;7.32;2.78;;;19.60;90.20;;;;;;5019333;28;20025;-73
2021/07/05 02:47:59;;;;;;;4.30;3.28;;;19.60;90.20;;;;;;5018522;28;20553;-73
2021/07/05 02:50:25;;;;;;;5.05;2.63;;;19.60;90.50;;;;;;5019794;28;20163;-73
2021/07/05 02:52:52;;;;;;;6.65;2.70;;;19.60;90.40;;;;;;5016079;28;20026;-73
2021/07/05 02:55:18;;;;;;;5.25;3.42;;;19.60;90.30;;;;;;5018679;28;20432;-73
2021/07/05 02:57:44;;;;;;;3.83;2.42;;;19.60;90.30;;;;;;5017446;28;20041;-73
2021/07/05 03:00:19;;;;;;;5.15;2.20;;;19.60;90.20;;;;;;5000305;28;20054;-73
2021/07/05 03:02:46;;;;;;;3.30;2.40;;;19.60;90.20;;;;;;5014819;28;20034;-73
2021/07/05 03:05:13;;;;;;;6.40;3.08;;;19.50;90.20;;;;;;5018863;28;20033;-73
2021/07/05 03:07:39;;;;;;;6.65;2.97;;;19.50;90.30;;;;;;5016653;28;20117;-73
2021/07/05 03:10:07;;;;;;;9.00;3.00;;;19.40;90.40;;;;;;5018016;28;20649;-73
2021/07/05 03:12:33;;;;;;;3.05;2.75;;;19.40;90.30;;;;;;4998396;28;20033;-73
2021/07/05 03:14:59;;;;;;;4.45;2.33;;;19.40;90.30;;;;;;5019740;28;20029;-73
2021/07/05 03:17:24;;;;;;;4.53;2.47;;;19.40;90.40;;;;;;5016606;28;20037;-73
2021/07/05 03:19:50;;;;;;;7.38;2.58;;;19.40;90.20;;;;;;5016862;28;20030;-73
2021/07/05 03:22:17;;;;;;;5.10;2.08;;;19.50;90.30;;;;;;5017796;28;20500;-73
2021/07/05 03:24:43;;;;;;;4.40;2.50;;;19.50;90.30;;;;;;5016189;28;20377;-73
2021/07/05 03:27:09;;;;;;;8.60;2.83;;;19.50;90.20;;;;;;5018023;28;20396;-73
2021/07/05 03:29:35;;;;;;;6.63;2.20;;;19.50;90.20;;;;;;4998419;28;20033;-74
2021/07/05 03:32:04;;;;;;;5.97;2.47;;;19.50;90.10;;;;;;5000226;28;20492;-73
2021/07/05 03:34:30;;;;;;;4.45;2.60;;;19.50;90.30;;;;;;5017370;28;20086;-73
2021/07/05 03:36:55;;;;;;;6.85;3.05;;;19.40;90.30;;;;;;5017816;28;20109;-73
2021/07/05 03:39:21;;;;;;;4.25;2.58;;;19.40;90.20;;;;;;5017433;28;20034;-73
2021/07/05 03:41:47;;;;;;;3.30;2.47;;;19.40;90.10;;;;;;5017578;28;20037;-73
2021/07/05 03:44:12;;;;;;;9.95;5.05;;;19.40;90.20;;;;;;5020032;28;20021;-73
2021/07/05 03:46:38;;;;;;;8.50;6.07;;;19.30;90.10;;;;;;5020849;28;20119;-73
2021/07/05 03:49:04;;;;;;;11.45;6.43;;;19.30;90.30;;;;;;5018960;28;20029;-73
2021/07/05 03:51:31;;;;;;;7.78;6.22;;;19.30;90.40;;;;;;5003220;28;20149;-73
2021/07/05 03:53:56;;;;;;;9.57;6.72;;;19.30;90.30;;;;;;5022338;28;20037;-74
2021/07/05 03:56:22;;;;;;;10.82;4.32;;;19.30;90.20;;;;;;5021198;28;20038;-74
2021/07/05 03:58:47;;;;;;;13.82;7.22;;;19.30;90.30;;;;;;4999145;28;20030;-74
2021/07/05 04:01:13;;;;;;;11.32;6.43;;;19.30;90.40;;;;;;5018975;28;20033;-73
2021/07/05 04:03:38;;;;;;;8.85;4.45;;;19.30;90.40;;;;;;5019473;28;20113;-73
2021/07/05 04:06:04;;;;;;;4.63;2.25;;;19.30;90.30;;;;;;5020011;28;20398;-73
2021/07/05 04:08:33;;;;;;;8.98;3.83;;;19.30;90.20;;;;;;5017733;28;20041;-73
2021/07/05 04:10:58;;;;;;;4.85;3.03;;;19.20;90.30;;;;;;5016157;28;20361;-72
2021/07/05 04:13:26;;;;;;;4.45;3.00;;;19.20;90.40;;;;;;4990973;28;20032;-73
2021/07/05 04:15:52;;;;;;;4.97;2.58;;;19.20;90.40;;;;;;5022401;28;20030;-72
2021/07/05 04:18:17;;;;;;;7.15;3.35;;;19.10;90.50;;;;;;5019883;28;20389;-73
2021/07/05 04:20:43;;;;;;;10.70;5.90;;;19.10;90.50;;;;;;5019550;28;20480;-73
2021/07/05 04:23:09;;;;;;;9.70;5.15;;;19.10;90.60;;;;;;5003042;28;20100;-72
2021/07/05 04:25:35;;;;;;;11.18;4.97;;;19.20;91.40;;;;;;5021082;28;20029;-72
2021/07/05 04:28:02;;;;;;;7.93;3.03;;;19.20;90.70;;;;;;5020158;28;20030;-71
2021/07/05 04:30:28;;;;;;;4.22;2.83;;;19.30;90.70;;;;;;5020294;28;20018;-72
2021/07/05 04:32:54;;;;;;;5.95;3.33;;;19.30;90.70;;;;;;5003772;28;20049;-72
2021/07/05 04:35:20;;;;;;;3.13;1.75;;;19.20;90.70;;;;;;5020216;28;20030;-72
2021/07/05 04:37:48;;;;;;;6.88;4.30;;;19.20;90.60;;;;;;5017635;28;20025;-72
2021/07/05 04:40:22;;;;;;;3.53;2.83;;;19.30;90.70;;;;;;5019618;28;20079;-72
2021/07/05 04:42:48;;;;;;;3.33;2.22;;;19.30;90.70;;;;;;5021419;28;20061;-72
2021/07/05 04:45:16;;;;;;;7.53;3.35;;;19.30;90.70;;;;;;4994379;28;20030;-72
2021/07/05 04:47:42;;;;;;;3.63;2.30;;;19.40;90.60;;;;;;5020419;28;20033;-72
2021/07/05 04:50:11;;;;;;;7.43;3.28;;;19.40;90.50;;;;;;5018083;28;20109;-72
2021/07/05 04:52:37;;;;;;;4.80;3.50;;;19.40;90.40;;;;;;5002316;28;20128;-72
2021/07/05 04:55:05;;;;;;;4.30;1.98;;;19.50;90.30;;;;;;5016669;28;20436;-73
2021/07/05 04:57:30;;;;;;;4.28;2.03;;;19.40;90.30;;;;;;5019809;28;20040;-73
2021/07/05 04:59:56;;;;;;;5.10;2.58;;;19.40;90.50;;;;;;5017339;28;20037;-74
2021/07/05 05:02:25;;;;;;;3.33;2.88;;;19.20;90.70;;;;;;5012204;28;20034;-73
2021/07/05 05:04:51;;;;;;;6.93;2.47;;;19.10;91.00;;;;;;5020500;28;20104;-73
2021/07/05 05:07:16;;;;;;;3.00;1.48;;;19.10;91.00;;;;;;5014294;28;20022;-73
2021/07/05 05:09:42;;;;;;;4.60;2.30;;;19.10;91.20;;;;;;5017332;28;20044;-73
2021/07/05 05:12:09;;;;;;;3.13;2.40;;;19.30;91.10;;;;;;5018490;28;20362;-73
2021/07/05 05:14:35;;;;;;;5.20;1.80;;;19.50;91.00;;;;;;5020957;28;20037;-73
2021/07/05 05:17:00;;;;;;;8.68;3.17;;;20.00;90.70;;;;;;5017859;28;20040;-73
2021/07/05 05:19:26;;;;;;;3.58;2.15;;;20.60;90.30;;;;;;5019349;28;20434;-73
2021/07/05 05:21:51;;;;;;;5.78;2.20;;;21.40;88.80;;;;;;5019612;28;20439;-73
2021/07/05 05:24:17;;;;;;;4.85;2.38;;;22.30;86.50;;;;;;5018070;28;20018;-73
2021/07/05 05:26:42;;;;;;;8.60;2.47;;;22.80;83.40;;;;;;5019752;28;20033;-73
2021/07/05 05:29:08;;;;;;;4.80;3.28;;;23.00;82.40;;;;;;5019536;28;20026;-73
2021/07/05 05:31:35;;;;;;;8.15;2.15;;;23.20;81.20;;;;;;5001887;28;20499;-73
2021/07/05 05:34:01;;;;;;;7.15;4.55;;;23.50;79.50;;;;;;4999724;28;20041;-73
2021/07/05 05:36:27;;;;;;;6.53;3.45;;;23.70;78.00;;;;;;5021072;28;20030;-73
2021/07/05 05:38:52;;;;;;;8.70;6.00;;;23.80;76.90;;;;;;5019787;28;20083;-73
2021/07/05 05:41:18;;;;;;;6.55;3.97;;;24.00;76.70;;;;;;5020594;28;20421;-73
2021/07/05 05:43:44;;;;;;;6.38;3.20;;;24.40;74.10;;;;;;5002746;28;20294;-73
2021/07/05 05:46:16;;;;;;;5.75;2.67;;;24.70;74.10;;;;;;5020474;28;20026;-73
2021/07/05 05:48:44;;;;;;;4.50;2.28;;;24.80;74.40;;;;;;5020728;28;20038;-74
2021/07/05 05:51:10;;;;;;;6.35;3.50;;;24.80;74.20;;;;;;5018693;28;20034;-74
2021/07/05 05:53:36;;;;;;;3.20;2.65;;;24.40;74.40;;;;;;5020448;28;20083;-73
2021/07/05 05:56:03;;;;;;;6.72;3.25;;;23.80;74.30;;;;;;4994296;28;20026;-73
2021/07/05 05:58:28;;;;;;;5.70;2.72;;;23.30;75.70;;;;;;5020459;28;20044;-74
2021/07/05 06:00:54;;;;;;;12.52;3.97;;;22.70;76.90;;;;;;5020049;28;20022;-73
2021/07/05 06:03:20;;;;;;;5.22;3.38;;;22.40;78.10;;;;;;5020132;28;20030;-73
2021/07/05 06:05:45;;;;;;;7.05;5.53;;;22.40;78.90;;;;;;5017203;28;20219;-73
2021/07/05 06:08:10;;;;;;;5.88;3.50;;;22.40;79.10;;;;;;5014312;28;20038;-72
2021/07/05 06:10:36;;;;;;;7.38;3.38;;;22.50;79.20;;;;;;5016893;28;20404;-72
2021/07/05 06:13:02;;;;;;;4.35;3.33;;;22.70;79.40;;;;;;4993756;28;20033;-72
2021/07/05 06:15:28;;;;;;;5.00;3.80;;;22.90;78.90;;;;;;5002080;28;20033;-73
2021/07/05 06:17:53;;;;;;;7.10;3.03;;;23.00;78.30;;;;;;5005369;28;20058;-73
2021/07/05 06:20:20;;;;;;;5.28;3.50;;;22.90;77.90;;;;;;4992070;28;20029;-73
2021/07/05 06:22:51;;;;;;;5.13;2.83;;;23.00;78.40;;;;;;4999954;28;20033;-72
2021/07/05 06:25:16;;;;;;;6.78;2.05;;;23.10;77.00;;;;;;4983621;28;20026;-72
2021/07/05 06:27:42;;;;;;;5.18;2.90;;;23.10;76.90;;;;;;4995749;28;20025;-72
2021/07/05 06:30:09;;;;;;;3.13;2.55;;;23.20;76.80;;;;;;4998248;28;20070;-72
2021/07/05 06:32:34;;;;;;;7.13;2.13;;;23.10;75.90;;;;;;5005720;28;20036;-73
2021/07/05 06:35:00;;;;;;;4.28;1.60;;;23.10;76.00;;;;;;5033897;23;20388;-75
2021/07/05 06:37:25;;;;;;;2.35;1.58;;;23.20;76.00;;;;;;5019184;28;20026;-75
2021/07/05 06:39:51;;;;;;;6.72;1.42;;;23.20;74.90;;;;;;5017022;28;20037;-75
2021/07/05 06:42:16;;;;;;;6.60;1.83;;;23.20;75.30;;;;;;5015508;28;20069;-74
2021/07/05 06:44:42;;;;;;;3.13;1.92;;;23.10;75.80;;;;;;5012658;28;20366;-75
2021/07/05 06:47:08;;;;;;;6.72;2.00;;;23.20;76.20;;;;;;4997565;28;20145;-74
2021/07/05 06:49:33;;;;;;;2.80;1.92;;;23.30;75.90;;;;;;4998054;28;20474;-76
2021/07/05 06:51:59;;;;;;;2.88;1.63;;;23.30;75.80;;;;;;5001430;28;20061;-77
2021/07/05 06:54:24;;;;;;;4.97;1.48;;;23.40;76.10;;;;;;5000900;28;20057;-76
2021/07/05 06:56:50;;;;;;;2.08;1.63;;;23.60;75.30;;;;;;4999437;28;20038;-76
2021/07/05 06:59:16;;;;;;;3.90;1.30;;;23.50;75.30;;;;;;5000360;28;20027;-76
2021/07/05 07:01:41;;;;;;;4.68;1.63;;;23.50;75.40;;;;;;4999385;28;20048;-74
2021/07/05 07:04:07;;;;;;;2.85;1.55;;;23.70;75.10;;;;;;5000232;28;20109;-74
2021/07/05 07:06:32;;;;;;;3.80;1.40;;;23.60;75.10;;;;;;4999884;28;20036;-75
2021/07/05 07:08:58;;;;;;;6.90;1.05;;;23.70;75.20;;;;;;5000891;28;20384;-75
2021/07/05 07:11:24;;;;;;;1.90;1.38;;;23.70;74.10;;;;;;4999636;28;20033;-75
2021/07/05 07:13:49;;;;;;;3.90;1.00;;;23.60;73.30;;;;;;4999475;28;20105;-75
2021/07/05 07:16:17;;;;;;;4.75;1.25;;;23.50;73.70;;;;;;4999058;28;20022;-74
2021/07/05 07:21:27;;;;;;;4.25;1.13;;;23.60;73.10;;;;;;5002818;28;20519;-75
2021/07/05 07:23:53;;;;;;;3.22;1.50;;;23.50;73.00;;;;;;5002515;28;20018;-75
2021/07/05 07:26:20;;;;;;;5.78;3.88;;;23.50;73.50;;;;;;5009154;28;20481;-73
2021/07/05 07:28:51;;;;;;;3.85;1.75;;;23.60;73.70;;;;;;5002931;28;20037;-75
2021/07/05 07:31:17;;;;;;;3.50;2.10;;;23.60;71.90;;;;;;5002436;28;20030;-74
2021/07/05 07:33:43;;;;;;;7.72;6.32;;;23.60;72.80;;;;;;5004463;28;20037;-76
2021/07/05 07:36:09;;;;;;;6.43;3.95;;;23.80;73.00;;;;;;5002661;28;20035;-77
2021/07/05 07:38:42;;;;;;;6.53;2.42;;;23.90;72.40;;;;;;5003519;28;20034;-73
2021/07/05 07:41:07;;;;;;;2.58;0.93;;;24.00;72.00;;;;;;5002794;28;20026;-74
2021/07/05 07:43:33;;;;;;;6.40;2.22;;;24.10;71.90;;;;;;5002932;28;20040;-75
2021/07/05 07:45:58;;;;;;;3.15;1.95;;;24.10;70.70;;;;;;5003063;28;20588;-74
2021/07/05 07:48:24;;;;;;;5.70;0.90;;;24.10;69.70;;;;;;5002706;28;20029;-73
2021/07/05 07:50:49;;;;;;;1.92;1.20;;;24.10;70.90;;;;;;5001895;28;20085;-75
2021/07/05 07:53:15;;;;;;;3.38;1.02;;;24.20;71.00;;;;;;5005102;28;20101;-75
2021/07/05 07:55:40;;;;;;;7.65;0.98;;;24.20;70.20;;;;;;5003551;28;20037;-74
2021/07/05 07:58:06;;;;;;;2.38;1.20;;;24.30;69.60;;;;;;5002923;28;20393;-74
2021/07/05 08:00:33;;;;;;;7.65;1.15;;;24.40;70.40;;;;;;5002961;28;20092;-74
2021/07/05 08:02:58;;;;;;;4.18;1.10;;;24.40;69.80;;;;;;5001905;28;20034;-74
2021/07/05 08:05:24;;;;;;;2.08;0.70;;;24.50;70.10;;;;;;5002705;28;20030;-74
2021/07/05 08:07:50;;;;;;;2.72;1.42;;;24.60;68.60;;;;;;5015004;28;20117;-74
2021/07/05 08:10:16;;;;;;;2.65;0.88;;;24.50;68.90;;;;;;5018964;28;20045;-74
2021/07/05 08:12:44;;;;;;;7.22;1.17;;;24.60;69.00;;;;;;5003091;28;20037;-74
2021/07/05 08:15:11;;;;;;;1.73;0.60;;;24.70;67.50;;;;;;5003642;28;20145;-75
2021/07/05 08:17:37;;;;;;;3.63;1.50;;;24.70;65.50;;;;;;5004256;28;20093;-73
2021/07/05 08:20:04;;;;;;;14.80;5.18;;;24.60;66.80;;;;;;5002197;28;20026;-75
2021/07/05 08:22:30;;;;;;;5.55;3.97;;;24.70;68.00;;;;;;5002018;28;20105;-75
2021/07/05 08:24:56;;;;;;;2.40;1.58;;;24.90;67.10;;;;;;5002137;28;20077;-74
2021/07/05 08:27:22;;;;;;;3.25;1.55;;;25.10;65.90;;;;;;5002075;28;20029;-74
2021/07/05 08:29:48;;;;;;;11.25;2.45;;;25.10;65.30;;;;;;5001473;28;20026;-74
2021/07/05 08:32:13;;;;;;;10.88;1.98;;;25.30;65.50;;;;;;5000703;28;20044;-75
2021/07/05 08:34:39;;;;;;;3.03;1.02;;;25.30;64.50;;;;;;5001656;28;20053;-74
2021/07/05 08:37:04;;;;;;;2.75;0.65;;;25.50;64.10;;;;;;5001144;28;20080;-75
2021/07/05 08:39:30;;;;;;;2.15;0.80;;;25.60;63.30;;;;;;5002913;28;20110;-73
2021/07/05 08:41:55;;;;;;;4.15;0.93;;;25.70;64.30;;;;;;5002185;28;20086;-74
2021/07/05 08:44:21;;;;;;;4.07;1.00;;;25.60;63.80;;;;;;5002536;28;20022;-72
2021/07/05 08:46:50;;;;;;;2.13;0.70;;;25.60;62.10;;;;;;5002539;28;20030;-75
2021/07/05 08:49:16;;;;;;;3.53;0.80;;;25.40;62.80;;;;;;5000233;28;20412;-74
2021/07/05 08:51:42;;;;;;;3.63;0.70;;;25.30;63.60;;;;;;5002632;28;20057;-73
2021/07/05 08:54:08;;;;;;;2.53;0.93;;;25.20;64.40;;;;;;5001557;28;20611;-74
2021/07/05 08:56:33;;;;;;;1.98;1.02;;;25.10;64.40;;;;;;5001725;28;20026;-75
2021/07/05 08:58:59;;;;;;;4.63;0.90;;;25.00;64.30;;;;;;5001434;28;20026;-76
2021/07/05 09:01:24;;;;;;;2.95;0.77;;;24.90;65.30;;;;;;5017989;28;20080;-75
2021/07/05 09:03:51;;;;;;;1.95;0.73;;;24.80;64.40;;;;;;5001592;28;20088;-75
2021/07/05 09:06:24;;;;;;;1.58;0.47;;;24.70;65.00;;;;;;5002894;28;20464;-77
2021/07/05 09:08:59;;;;;;;2.17;0.80;;;24.70;65.30;;;;;;5001490;28;20065;-75
2021/07/05 09:11:46;;;;;;;4.85;1.40;;;24.60;65.90;;;;;;5001613;28;20027;-76
2021/07/05 09:14:18;;;;;;;2.67;0.63;;;24.70;66.40;;;;;;5015738;28;20030;-76
2021/07/05 09:16:45;;;;;;;2.03;0.73;;;24.70;66.80;;;;;;5001534;28;20030;-76
2021/07/05 09:19:19;;;;;;;1.60;1.15;;;24.70;67.80;;;;;;5002058;28;20117;-76
2021/07/05 09:21:48;;;;;;;4.60;1.15;;;24.60;68.30;;;;;;5000779;28;20072;-75
2021/07/05 09:24:14;;;;;;;2.33;1.35;;;24.50;67.80;;;;;;5000416;28;20761;-74
2021/07/05 09:26:45;;;;;;;3.13;0.98;;;24.50;68.40;;;;;;5000784;28;20113;-74
2021/07/05 09:29:13;;;;;;;1.40;0.85;;;24.40;68.60;;;;;;5001838;28;20034;-74
2021/07/05 09:32:00;;;;;;;5.97;1.38;;;24.30;68.50;;;;;;5000740;28;20065;-74
2021/07/05 09:34:31;;;;;;;4.97;1.00;;;24.20;69.00;;;;;;5001152;28;20042;-74
2021/07/05 09:37:20;;;;;;;2.10;0.93;;;24.10;69.30;;;;;;4999532;28;20030;-74
2021/07/05 09:40:00;;;;;;;2.47;0.63;;;24.00;69.80;;;;;;5000935;28;20056;-73
2021/07/05 09:42:27;;;;;;;2.17;0.77;;;23.90;70.20;;;;;;4998888;28;20034;-71
2021/07/05 09:44:52;;;;;;;7.15;1.05;;;23.80;70.20;;;;;;5000921;28;20039;-71
2021/07/05 09:47:19;;;;;;;5.28;1.15;;;23.80;70.60;;;;;;5000754;28;20026;-72
2021/07/05 09:49:47;;;;;;;11.23;1.95;;;23.80;70.90;;;;;;5001311;28;20161;-72
2021/07/05 09:52:25;;;;;;;9.40;1.50;;;23.80;70.70;;;;;;4997714;28;20030;-72
2021/07/05 09:54:54;;;;;;;5.53;1.60;;;23.90;70.80;;;;;;5000514;28;20031;-72
2021/07/05 09:57:26;;;;;;;9.77;1.33;;;23.90;70.90;;;;;;5001645;28;20080;-71
2021/07/05 10:00:07;;;;;;;4.80;2.60;;;24.00;70.90;;;;;;5000841;28;20062;-74
2021/07/05 10:02:33;;;;;;;17.80;7.30;;;24.10;70.60;;;;;;5005924;28;20034;-75
2021/07/05 10:05:09;;;;;;;6.93;3.13;;;24.00;71.00;;;;;;5001177;28;20031;-75
2021/07/05 10:07:34;;;;;;;10.60;2.85;;;23.90;70.60;;;;;;5000076;28;20384;-75
2021/07/05 10:10:18;;;;;;;8.38;3.85;;;23.90;71.00;;;;;;5000367;28;20042;-73
2021/07/05 10:12:52;;;;;;;8.35;3.15;;;23.80;71.20;;;;;;5003122;28;20476;-73
2021/07/05 10:15:19;;;;;;;6.88;2.53;;;23.70;71.10;;;;;;5000271;28;20048;-73
2021/07/05 10:17:48;;;;;;;5.15;1.38;;;23.80;71.40;;;;;;5000923;28;20046;-73
2021/07/05 10:20:19;;;;;;;6.20;1.35;;;23.80;71.00;;;;;;5013394;28;20388;-84
2021/07/05 10:22:47;;;;;;;2.53;1.20;;;23.80;71.70;;;;;;5002682;28;20026;-81
2021/07/05 10:25:12;;;;;;;1.77;0.98;;;23.90;71.50;;;;;;5002992;28;20040;-80
2021/07/05 10:27:39;;;;;;;2.28;1.20;;;24.00;71.30;;;;;;5004107;28;20018;-80
2021/07/05 10:30:07;;;;;;;1.52;0.82;;;24.10;71.30;;;;;;5000195;28;20033;-80
2021/07/05 10:32:33;;;;;;;8.57;1.15;;;24.30;71.60;;;;;;5000159;28;20045;-80
2021/07/05 10:34:59;;;;;;;1.55;1.05;;;24.50;70.70;;;;;;4998845;28;20038;-81
2021/07/05 10:37:39;;;;;;;1.25;0.77;;;24.60;70.40;;;;;;5002463;28;20588;-80
2021/07/05 10:40:09;;;;;;;4.28;0.77;;;24.70;70.70;;;;;;5004363;28;20783;-79
2021/07/05 10:42:40;;;;;;;3.05;0.82;;;24.90;70.10;;;;;;5000834;28;20041;-80
2021/07/05 10:45:11;;;;;;;2.65;0.77;;;24.80;69.90;;;;;;5002312;28;20095;-80
2021/07/05 10:47:54;;;;;;;3.28;1.15;;;24.80;70.00;;;;;;5001922;28;20120;-81
2021/07/05 10:50:46;;;;;;;3.90;0.75;;;24.70;69.60;;;;;;5015584;28;20029;-79
2021/07/05 10:53:17;;;;;;;4.72;0.88;;;24.60;71.50;;;;;;5005768;28;20132;-81
2021/07/05 10:55:50;;;;;;;2.83;1.02;;;24.20;74.10;;;;;;4999804;28;20052;-78
2021/07/05 10:58:16;;;;;;;7.53;1.25;;;23.80;75.20;;;;;;5003213;28;20096;-79
2021/07/05 11:00:44;;;;;;;1.38;0.70;;;23.70;75.00;;;;;;5002819;28;20018;-80
2021/07/05 11:03:11;;;;;;;4.57;1.50;;;23.50;76.70;;;;;;5015607;28;20046;-79
2021/07/05 11:05:45;;;;;;;2.15;1.45;;;23.20;78.60;;;;;;5000853;28;20041;-83
2021/07/05 11:08:38;;;;;;;2.67;0.80;;;22.90;79.70;;;;;;5004530;28;20040;-82
2021/07/05 11:11:22;;;;;;;3.28;1.00;;;22.70;80.30;;;;;;5002812;28;20029;-83
2021/07/05 11:14:07;;;;;;;12.57;2.22;;;22.60;81.70;;;;;;5005251;28;20022;-83
2021/07/05 11:16:52;;;;;;;14.43;3.70;;;22.40;82.80;;;;;;5005692;28;20041;-79
2021/07/05 11:19:42;;;;;;;6.13;2.03;;;22.30;85.10;;;;;;5001960;28;20088;-77
2021/07/05 11:22:22;;;;;;;4.25;1.52;;;22.30;85.90;;;;;;5003060;28;20109;-83
2021/07/05 11:24:50;;;;;;;2.72;1.33;;;22.30;87.90;;;;;;5003666;28;20591;-79
2021/07/05 11:27:31;;;;;;;4.00;1.30;;;22.30;88.60;;;;;;4998859;28;20027;-82
2021/07/05 11:30:22;;;;;;;7.10;1.40;;;22.40;88.60;;;;;;4996168;28;20025;-80
2021/07/05 11:32:51;;;;;;;5.60;1.60;;;22.50;89.20;;;;;;5004028;28;20484;-79
2021/07/05 11:35:47;;;;;;;7.03;1.73;;;22.60;89.10;;;;;;4998577;28;20038;-79
2021/07/05 11:38:30;;;;;;;4.95;1.75;;;22.60;89.30;;;;;;4990710;28;20046;-78
2021/07/05 11:40:59;;;;;;;7.13;1.95;;;22.70;88.50;;;;;;4997511;28;20041;-78
2021/07/05 11:44:09;;;;;;;4.35;1.90;;;22.70;88.70;;;;;;4997955;28;20034;-80
2021/07/05 11:46:34;;;;;;;6.80;2.38;;;22.80;88.60;;;;;;5005239;28;20046;-78
2021/07/05 11:49:08;;;;;;;7.68;2.95;;;22.90;88.10;;;;;;4998652;28;20089;-80
2021/07/05 11:51:37;;;;;;;4.07;1.95;;;23.00;87.60;;;;;;5007552;28;20033;-79
2021/07/05 11:54:33;;;;;;;5.80;2.20;;;23.10;87.70;;;;;;5000295;28;20580;-79
2021/07/05 11:57:01;;;;;;;3.63;2.25;;;23.10;88.10;;;;;;5003541;28;20029;-83
2021/07/05 11:59:31;;;;;;;2.03;1.50;;;23.20;88.10;;;;;;5001031;28;20141;-83
2021/07/05 12:02:01;;;;;;;3.05;2.47;;;23.30;87.80;;;;;;5001301;28;20209;-83
2021/07/05 12:04:33;;;;;;;2.67;1.83;;;23.20;88.40;;;;;;5003166;28;20022;-83
2021/07/05 12:06:58;;;;;;;4.55;1.42;;;23.00;88.20;;;;;;5019301;28;20030;-78
2021/07/05 12:09:32;;;;;;;1.88;1.02;;;22.80;88.60;;;;;;5004679;28;20030;-79
2021/07/05 12:12:07;;;;;;;1.52;1.20;;;22.70;88.60;;;;;;5007451;28;20050;-81
2021/07/05 12:14:32;;;;;;;4.38;1.50;;;22.70;89.40;;;;;;5005026;28;20033;-82
2021/07/05 12:17:00;;;;;;;2.45;1.42;;;22.70;89.20;;;;;;5009370;28;20041;-78
2021/07/05 12:19:28;;;;;;;0.90;0.70;;;22.70;89.30;;;;;;5011227;28;20031;-78
2021/07/05 12:21:57;;;;;;;2.17;1.00;;;22.80;88.50;;;;;;5001667;28;20104;-78
2021/07/05 12:24:25;;;;;;;1.30;0.70;;;23.00;88.20;;;;;;5004710;28;20030;-85
2021/07/05 12:26:57;;;;;;;7.32;0.95;;;23.20;86.80;;;;;;5004799;28;20029;-86
2021/07/05 12:29:30;;;;;;;1.45;0.50;;;23.20;84.40;;;;;;5008646;28;20018;-86
2021/07/05 12:32:06;;;;;;;0.85;0.65;;;23.10;81.90;;;;;;5008095;28;20105;-83
2021/07/05 12:34:34;;;;;;;;;;;23.20;83.90;;;;;;5007561;28;20129;-87
2021/07/05 12:37:00;;;;;;;2.47;0.47;;;23.30;83.30;;;;;;5001641;28;19999;-84
2021/07/05 12:39:25;;;;;;;1.83;0.70;;;23.40;82.10;;;;;;5001845;28;20030;-85
2021/07/05 12:41:51;;;;;;;3.75;0.60;;;23.40;82.00;;;;;;5001621;28;20058;-83
2021/07/05 12:44:17;;;;;;;1.02;0.50;;;23.40;82.40;;;;;;5000925;28;20030;-85
2021/07/05 12:46:43;;;;;;;1.00;0.50;;;23.60;82.80;;;;;;5002484;28;20030;-84
2021/07/05 12:49:09;;;;;;;1.35;0.50;;;23.80;81.20;;;;;;5002938;28;20473;-86
2021/07/05 12:51:36;;;;;;;0.75;0.60;;;23.80;79.20;;;;;;5016608;28;20415;-84
2021/07/05 12:54:19;;;;;;;1.17;0.43;;;23.70;77.30;;;;;;5000150;28;20037;-82